createdAt,value
2023-03-22T00:00:20.732Z,60.98
2023-03-22T00:03:11.651Z,61.03
2023-03-22T00:05:43.739Z,61.08
2023-03-22T00:08:15.248Z,61.24
2023-03-22T00:10:47.717Z,61.26
2023-03-22T00:13:17.077Z,61.39
2023-03-22T00:15:48.505Z,61.39
2023-03-22T00:18:20.728Z,61.27
2023-03-22T00:20:55.699Z,61.27
2023-03-22T00:26:41.408Z,61.45
2023-03-22T00:29:11.140Z,61.55
2023-03-22T00:31:41.377Z,61.53
2023-03-22T00:34:11.047Z,61.62
2023-03-22T00:36:40.863Z,61.72
2023-03-22T00:39:10.540Z,61.70
2023-03-22T00:41:40.163Z,61.54
2023-03-22T00:44:15.652Z,61.59
2023-03-22T00:46:45.342Z,61.52
2023-03-22T00:49:15.404Z,61.60
2023-03-22T00:51:49.086Z,61.72
2023-03-22T00:54:39.085Z,61.68
2023-03-22T00:57:26.885Z,61.65
2023-03-22T00:59:58.126Z,61.77
2023-03-22T01:02:29.329Z,61.83
2023-03-22T01:04:59.662Z,61.92
2023-03-22T01:07:28.989Z,62.15
2023-03-22T01:09:59.243Z,62.13
2023-03-22T01:12:30.614Z,62.27
2023-03-22T01:15:01.021Z,62.16
2023-03-22T01:17:41.665Z,62.30
2023-03-22T01:20:14.095Z,62.28
2023-03-22T01:22:44.818Z,62.30
2023-03-22T01:25:15.558Z,62.41
2023-03-22T01:27:47.823Z,62.40
2023-03-22T01:30:18.060Z,62.49
2023-03-22T01:32:48.911Z,62.66
2023-03-22T01:35:20.730Z,62.60
2023-03-22T01:37:51.676Z,62.68
2023-03-22T01:40:22.866Z,62.68
2023-03-22T01:42:54.093Z,62.70
2023-03-22T01:45:39.751Z,62.74
2023-03-22T01:48:20.102Z,62.89
2023-03-22T01:50:59.345Z,62.92
2023-03-22T01:53:40.225Z,62.99
2023-03-22T01:56:14.841Z,63.06
2023-03-22T01:58:45.430Z,63.06
2023-03-22T02:01:16.284Z,63.12
2023-03-22T02:03:50.570Z,63.19
2023-03-22T02:06:21.653Z,63.24
2023-03-22T02:08:52.597Z,63.32
2023-03-22T02:11:33.840Z,63.31
2023-03-22T02:14:41.234Z,63.35
2023-03-22T02:17:28.708Z,63.45
2023-03-22T02:20:34.110Z,63.36
2023-03-22T02:23:35.286Z,63.40
2023-03-22T02:26:38.692Z,63.34
2023-03-22T02:29:18.816Z,63.49
2023-03-22T02:32:33.471Z,63.62
2023-03-22T02:35:26.991Z,63.62
2023-03-22T02:38:42.341Z,63.68
2023-03-22T02:41:28.473Z,63.79
2023-03-22T02:44:21.953Z,63.66
2023-03-22T02:47:29.580Z,63.88
2023-03-22T02:50:10.917Z,63.88
2023-03-22T02:52:55.912Z,64.04
2023-03-22T02:55:35.751Z,64.09
2023-03-22T02:58:14.735Z,64.12
2023-03-22T03:00:53.931Z,64.11
2023-03-22T03:03:35.948Z,64.19
2023-03-22T03:06:20.974Z,64.04
2023-03-22T03:09:02.263Z,64.24
2023-03-22T03:11:33.741Z,64.35
2023-03-22T03:14:04.730Z,64.28
2023-03-22T03:16:37.870Z,64.39
2023-03-22T03:19:19.743Z,64.40
2023-03-22T03:22:14.345Z,64.39
2023-03-22T03:24:59.832Z,64.39
2023-03-22T03:27:43.736Z,64.47
2023-03-22T03:30:17.141Z,64.58
2023-03-22T03:32:55.967Z,64.42
2023-03-22T03:35:28.087Z,64.65
2023-03-22T03:38:08.317Z,64.77
2023-03-22T03:40:41.452Z,64.85
2023-03-22T03:43:13.430Z,64.67
2023-03-22T03:45:45.742Z,64.90
2023-03-22T03:48:21.667Z,64.85
2023-03-22T03:50:57.473Z,65.07
2023-03-22T03:53:36.345Z,65.03
2023-03-22T03:56:14.775Z,65.16
2023-03-22T03:58:49.541Z,65.23
2023-03-22T04:01:21.303Z,65.17
2023-03-22T04:03:55.108Z,65.14
2023-03-22T04:06:38.965Z,65.19
2023-03-22T04:09:10.086Z,65.23
2023-03-22T04:11:40.723Z,65.35
2023-03-22T04:14:23.708Z,65.46
2023-03-22T04:16:55.701Z,65.51
2023-03-22T04:19:26.557Z,65.60
2023-03-22T04:21:59.747Z,65.61
2023-03-22T04:24:33.893Z,65.66
2023-03-22T04:27:03.588Z,65.72
2023-03-22T04:29:35.722Z,65.65
2023-03-22T04:32:06.424Z,65.66
2023-03-22T04:34:41.001Z,65.66
2023-03-22T04:37:23.052Z,65.58
2023-03-22T04:39:53.865Z,65.57
2023-03-22T04:42:24.313Z,65.57
2023-03-22T04:45:14.694Z,65.70
2023-03-22T04:47:45.309Z,65.68
2023-03-22T04:50:18.470Z,65.61
2023-03-22T04:52:54.319Z,65.74
2023-03-22T04:55:24.637Z,65.68
2023-03-22T04:57:56.257Z,65.85
2023-03-22T05:00:39.894Z,65.91
2023-03-22T05:03:23.162Z,65.93
2023-03-22T05:06:07.313Z,65.94
2023-03-22T05:09:17.988Z,65.96
2023-03-22T05:11:53.934Z,65.96
2023-03-22T05:14:24.533Z,66.00
2023-03-22T05:17:09.655Z,65.97
2023-03-22T05:20:08.624Z,65.82
2023-03-22T05:22:53.392Z,65.98
2023-03-22T05:25:26.206Z,66.00
2023-03-22T05:28:01.834Z,65.77
2023-03-22T05:30:38.706Z,65.71
2023-03-22T05:34:23.783Z,65.64
2023-03-22T05:37:01.164Z,65.77
2023-03-22T05:39:30.981Z,65.71
2023-03-22T05:42:01.000Z,65.63
2023-03-22T05:44:33.090Z,65.60
2023-03-22T05:47:08.678Z,65.63
2023-03-22T05:49:44.778Z,65.45
2023-03-22T05:52:20.400Z,65.44
2023-03-22T05:54:50.664Z,65.62
2023-03-22T05:57:22.799Z,65.54
2023-03-22T06:00:01.251Z,65.58
2023-03-22T06:02:30.937Z,66.09
2023-03-22T06:05:13.162Z,65.62
2023-03-22T06:07:43.246Z,65.51
2023-03-22T06:10:16.177Z,65.38
2023-03-22T06:15:50.370Z,65.46
2023-03-22T06:18:43.117Z,65.30
2023-03-22T06:21:20.614Z,65.31
2023-03-22T06:23:50.620Z,65.33
2023-03-22T06:26:24.180Z,65.34
2023-03-22T06:28:57.630Z,65.43
2023-03-22T06:31:30.947Z,65.44
2023-03-22T06:34:22.266Z,65.27
2023-03-22T06:36:54.242Z,66.07
2023-03-22T06:39:26.109Z,67.00
2023-03-22T06:41:58.310Z,66.81
2023-03-22T06:44:36.081Z,66.53
2023-03-22T06:47:09.220Z,67.14
2023-03-22T06:49:42.264Z,66.32
2023-03-22T06:52:17.519Z,65.93
2023-03-22T06:55:05.313Z,65.54
2023-03-22T06:57:43.663Z,66.03
2023-03-22T07:00:36.147Z,65.59
2023-03-22T07:03:05.849Z,65.90
2023-03-22T07:05:35.735Z,66.45
2023-03-22T07:08:05.199Z,65.51
2023-03-22T07:10:34.746Z,66.33
2023-03-22T07:13:04.152Z,65.67
2023-03-22T07:15:34.727Z,65.33
2023-03-22T07:18:04.385Z,65.27
2023-03-22T07:20:36.529Z,65.33
2023-03-22T07:23:08.652Z,64.63
2023-03-22T07:25:41.437Z,64.28
2023-03-22T07:28:14.202Z,64.74
2023-03-22T07:30:45.351Z,64.51
2023-03-22T07:33:15.464Z,64.51
2023-03-22T07:35:46.170Z,64.49
2023-03-22T07:41:06.294Z,64.09
2023-03-22T07:43:52.448Z,64.16
2023-03-22T07:46:27.573Z,64.28
2023-03-22T07:48:57.217Z,64.29
2023-03-22T07:51:29.980Z,64.56
2023-03-22T07:54:03.299Z,65.23
2023-03-22T07:56:33.286Z,64.45
2023-03-22T07:59:03.759Z,64.67
2023-03-22T08:01:34.704Z,64.78
2023-03-22T08:04:05.226Z,64.68
2023-03-22T08:06:44.169Z,65.10
2023-03-22T08:09:22.621Z,64.59
2023-03-22T08:12:11.410Z,64.51
2023-03-22T08:14:46.769Z,64.17
2023-03-22T08:17:18.097Z,64.15
2023-03-22T08:19:47.937Z,64.22
2023-03-22T08:22:18.490Z,64.38
2023-03-22T08:24:48.396Z,63.83
2023-03-22T08:27:19.327Z,63.60
2023-03-22T08:29:53.546Z,63.35
2023-03-22T08:32:23.321Z,63.41
2023-03-22T08:34:53.054Z,63.56
2023-03-22T08:37:22.846Z,62.99
2023-03-22T08:39:53.918Z,63.10
2023-03-22T08:42:24.442Z,63.44
2023-03-22T08:44:54.561Z,63.39
2023-03-22T08:47:24.945Z,63.39
2023-03-22T08:49:55.224Z,63.81
2023-03-22T08:52:25.131Z,63.28
2023-03-22T08:54:55.891Z,63.13
2023-03-22T08:57:27.156Z,63.35
2023-03-22T08:59:57.605Z,63.64
2023-03-22T09:02:27.971Z,63.36
2023-03-22T09:04:58.596Z,63.13
2023-03-22T09:07:29.186Z,62.53
2023-03-22T09:10:00.022Z,62.04
2023-03-22T09:12:29.897Z,61.95
2023-03-22T09:15:00.146Z,61.83
2023-03-22T09:17:30.343Z,61.82
2023-03-22T09:20:13.114Z,61.88
2023-03-22T09:22:44.999Z,62.05
2023-03-22T09:25:14.952Z,62.07
2023-03-22T09:27:45.622Z,62.33
2023-03-22T09:30:17.551Z,61.78
2023-03-22T09:32:48.192Z,61.65
2023-03-22T09:35:18.270Z,61.60
2023-03-22T09:37:48.888Z,61.92
2023-03-22T09:40:19.651Z,61.99
2023-03-22T09:42:54.707Z,61.93
2023-03-22T09:45:37.611Z,62.08
2023-03-22T09:48:18.617Z,62.01
2023-03-22T09:50:54.753Z,62.22
2023-03-22T09:53:29.144Z,62.18
2023-03-22T09:56:18.251Z,62.23
2023-03-22T09:58:57.845Z,62.21
2023-03-22T10:01:39.589Z,62.11
2023-03-22T10:04:42.830Z,62.09
2023-03-22T10:07:27.392Z,61.94
2023-03-22T10:10:08.269Z,62.09
2023-03-22T10:12:48.345Z,61.86
2023-03-22T10:15:28.845Z,61.68
2023-03-22T10:18:01.425Z,61.97
2023-03-22T10:20:43.301Z,61.94
2023-03-22T10:23:32.111Z,61.78
2023-03-22T10:26:05.066Z,61.77
2023-03-22T10:28:40.049Z,61.86
2023-03-22T10:31:19.733Z,61.92
2023-03-22T10:34:06.521Z,61.56
2023-03-22T10:36:45.014Z,61.57
2023-03-22T10:39:27.935Z,61.28
2023-03-22T10:42:02.387Z,61.32
2023-03-22T10:44:40.201Z,61.35
2023-03-22T10:47:11.625Z,61.41
2023-03-22T10:49:54.455Z,61.35
2023-03-22T10:52:41.307Z,61.24
2023-03-22T10:55:17.300Z,61.28
2023-03-22T10:58:13.341Z,61.28
2023-03-22T11:00:52.392Z,61.17
2023-03-22T11:03:34.861Z,61.07
2023-03-22T11:06:11.070Z,61.41
2023-03-22T11:08:56.723Z,61.23
2023-03-22T11:11:29.721Z,61.07
2023-03-22T11:14:06.514Z,61.07
2023-03-22T11:16:47.949Z,60.84
2023-03-22T11:19:26.170Z,60.65
2023-03-22T11:21:58.445Z,60.58
2023-03-22T11:24:34.592Z,60.46
2023-03-22T11:27:11.156Z,60.33
2023-03-22T11:29:52.028Z,60.19
2023-03-22T11:32:28.421Z,60.15
2023-03-22T11:35:04.985Z,60.19
2023-03-22T11:37:40.949Z,60.27
2023-03-22T11:40:16.441Z,59.89
2023-03-22T11:42:49.337Z,59.88
2023-03-22T11:45:27.719Z,59.78
2023-03-22T11:48:10.363Z,59.95
2023-03-22T11:50:46.070Z,59.83
2023-03-22T11:53:25.008Z,59.77
2023-03-22T11:56:16.548Z,59.84
2023-03-22T11:59:05.243Z,59.86
2023-03-22T12:02:13.162Z,59.61
2023-03-22T12:07:56.801Z,60.99
2023-03-22T12:10:32.074Z,61.19
2023-03-22T12:13:11.200Z,60.32
2023-03-22T12:15:48.437Z,60.79
2023-03-22T12:18:28.982Z,60.24
2023-03-22T12:21:01.618Z,60.12
2023-03-22T12:23:36.903Z,59.91
2023-03-22T12:26:14.463Z,59.53
2023-03-22T12:28:56.438Z,59.83
2023-03-22T12:31:33.873Z,59.03
2023-03-22T12:34:25.776Z,59.19
2023-03-22T12:36:59.889Z,58.38
2023-03-22T12:39:41.338Z,58.72
2023-03-22T12:42:21.905Z,58.36
2023-03-22T12:45:05.204Z,58.62
2023-03-22T12:47:50.867Z,58.47
2023-03-22T12:50:31.751Z,58.49
2023-03-22T12:53:04.049Z,58.22
2023-03-22T12:55:38.242Z,58.49
2023-03-22T12:58:10.343Z,58.40
2023-03-22T13:00:54.590Z,58.18
2023-03-22T13:03:49.305Z,58.10
2023-03-22T13:06:55.556Z,58.21
2023-03-22T13:09:49.053Z,58.22
2023-03-22T13:12:34.618Z,58.08
2023-03-22T13:15:41.838Z,57.96
2023-03-22T13:18:38.307Z,58.04
2023-03-22T13:21:19.447Z,58.26
2023-03-22T13:24:04.880Z,58.40
2023-03-22T13:26:42.325Z,57.94
2023-03-22T13:29:25.233Z,57.92
2023-03-22T13:32:00.185Z,57.92
2023-03-22T13:34:39.735Z,57.83
2023-03-22T13:37:30.051Z,58.05
2023-03-22T13:40:04.435Z,57.84
2023-03-22T13:42:38.997Z,57.66
2023-03-22T13:45:41.623Z,57.56
2023-03-22T13:48:36.062Z,56.83
2023-03-22T13:51:16.130Z,56.53
2023-03-22T13:54:02.289Z,56.28
2023-03-22T13:56:59.889Z,56.09
2023-03-22T14:00:09.442Z,56.00
2023-03-22T14:02:43.094Z,56.26
2023-03-22T14:05:27.233Z,55.96
2023-03-22T14:08:02.396Z,56.52
2023-03-22T14:10:47.887Z,56.45
2023-03-22T14:13:32.115Z,56.49
2023-03-22T14:16:19.536Z,56.82
2023-03-22T14:18:54.282Z,56.99
2023-03-22T14:21:31.488Z,57.23
